Time;durP1;ratioP1;P1;durP2;ratioP2;P2;SDS_P1;SDS_P2;PMS_P1;PMS_P2;Temp;Humidity;BMP_temperature;BMP_pressure;BME280_temperature;BME280_humidity;BME280_pressure;Samples;Min_cycle;Max_cycle;Signal;HPM_P1;HPM_P2
2023/04/02 00:00:18;;;;;;;7.22;3.17;;;6.50;99.90;;;;;;4976762;28;20059;-88
2023/04/02 00:02:46;;;;;;;5.35;3.70;;;6.50;99.90;;;;;;4977248;28;20093;-88
2023/04/02 00:05:30;;;;;;;5.18;2.92;;;6.50;99.90;;;;;;4976705;28;20030;-88
2023/04/02 00:07:59;;;;;;;5.85;3.60;;;6.50;99.90;;;;;;4960475;28;20023;-88
2023/04/02 00:10:45;;;;;;;7.97;4.05;;;6.50;99.90;;;;;;4976159;28;20130;-87
2023/04/02 00:13:11;;;;;;;6.18;3.42;;;6.50;99.90;;;;;;4976840;28;20123;-88
2023/04/02 00:15:43;;;;;;;7.53;3.22;;;6.50;99.90;;;;;;4960436;28;20058;-88
2023/04/02 00:18:14;;;;;;;7.50;3.92;;;6.50;99.90;;;;;;4976571;28;20109;-89
2023/04/02 00:20:43;;;;;;;7.50;3.30;;;6.50;99.90;;;;;;4977631;28;20022;-88
2023/04/02 00:23:13;;;;;;;8.48;3.75;;;6.50;99.90;;;;;;4976300;28;20047;-88
2023/04/02 00:25:44;;;;;;;6.97;3.42;;;6.50;99.90;;;;;;4976280;28;20035;-88
2023/04/02 00:28:13;;;;;;;8.02;3.85;;;6.50;99.90;;;;;;4976314;28;20054;-88
2023/04/02 00:30:46;;;;;;;6.05;3.60;;;6.50;99.90;;;;;;4976371;28;20110;-89
2023/04/02 00:33:17;;;;;;;6.40;4.03;;;6.50;99.90;;;;;;4976495;28;20035;-89
2023/04/02 00:35:42;;;;;;;7.03;3.60;;;6.40;99.90;;;;;;4976164;28;20094;-89
2023/04/02 00:38:21;;;;;;;6.43;4.38;;;6.50;99.90;;;;;;4977702;28;20178;-88
2023/04/02 00:40:48;;;;;;;6.40;4.07;;;6.50;99.90;;;;;;4976366;28;20548;-87
2023/04/02 00:43:17;;;;;;;10.10;4.13;;;6.40;99.90;;;;;;4975978;28;20041;-88
2023/04/02 00:45:49;;;;;;;7.63;4.13;;;6.50;99.90;;;;;;4976100;28;20023;-88
2023/04/02 00:48:30;;;;;;;11.88;3.88;;;6.50;99.90;;;;;;4977016;28;20106;-88
2023/04/02 00:50:57;;;;;;;;;;;6.50;99.90;;;;;;4960195;28;20026;-88
2023/04/02 00:53:30;;;;;;;8.30;4.60;;;6.50;99.90;;;;;;4959720;28;19952;-89
2023/04/02 00:55:57;;;;;;;6.60;3.97;;;6.50;99.90;;;;;;4975443;28;20023;-88
2023/04/02 00:58:34;;;;;;;8.93;4.88;;;6.50;99.90;;;;;;4976591;28;20059;-88
2023/04/02 01:01:00;;;;;;;9.63;4.05;;;6.50;99.90;;;;;;4975855;28;20050;-88
2023/04/02 01:03:28;;;;;;;5.22;3.95;;;6.50;99.90;;;;;;4975734;28;20030;-89
2023/04/02 01:06:09;;;;;;;8.20;4.18;;;6.50;99.90;;;;;;4975729;28;20027;-89
2023/04/02 01:08:52;;;;;;;7.35;4.15;;;6.50;99.90;;;;;;4975528;28;20023;-88
2023/04/02 01:11:40;;;;;;;6.40;3.80;;;6.50;99.90;;;;;;4959188;28;20050;-88
2023/04/02 01:14:27;;;;;;;5.40;3.58;;;6.50;99.90;;;;;;4959619;28;20069;-89
2023/04/02 01:17:11;;;;;;;5.85;4.03;;;6.50;99.90;;;;;;4977175;28;20496;-89
2023/04/02 01:19:51;;;;;;;9.48;4.55;;;6.50;99.90;;;;;;4976509;28;20075;-89
2023/04/02 01:22:33;;;;;;;9.38;4.43;;;6.50;99.90;;;;;;4975475;28;20034;-89
2023/04/02 01:25:03;;;;;;;7.72;4.22;;;6.50;99.90;;;;;;4975418;28;20089;-89
2023/04/02 01:27:51;;;;;;;7.03;3.92;;;6.50;99.90;;;;;;4976377;28;20070;-88
2023/04/02 01:30:18;;;;;;;5.70;3.67;;;6.50;99.90;;;;;;4963343;28;20034;-88
2023/04/02 01:32:44;;;;;;;7.10;3.67;;;6.50;99.90;;;;;;4975533;28;20476;-88
2023/04/02 01:35:11;;;;;;;7.13;4.10;;;6.60;99.90;;;;;;4976266;28;20026;-88
2023/04/02 01:37:55;;;;;;;8.05;4.57;;;6.50;99.90;;;;;;4975051;28;20023;-89
2023/04/02 01:40:34;;;;;;;4.57;3.22;;;6.50;99.90;;;;;;4975147;28;20022;-89
2023/04/02 01:43:13;;;;;;;5.85;3.25;;;6.50;99.90;;;;;;4974776;28;20391;-88
2023/04/02 01:45:39;;;;;;;6.38;3.25;;;6.50;99.90;;;;;;4974647;28;20075;-88
2023/04/02 01:48:16;;;;;;;5.25;3.30;;;6.50;99.90;;;;;;4974733;28;20038;-88
2023/04/02 01:50:44;;;;;;;14.95;5.57;;;6.50;99.90;;;;;;4974653;28;20026;-88
2023/04/02 01:53:13;;;;;;;4.47;3.15;;;6.50;99.90;;;;;;4974595;28;20034;-88
2023/04/02 01:55:58;;;;;;;7.25;3.70;;;6.50;99.90;;;;;;4974341;28;20026;-89
2023/04/02 01:58:30;;;;;;;7.22;4.50;;;6.50;99.90;;;;;;4974312;28;20481;-88
2023/04/02 02:01:04;;;;;;;7.85;3.80;;;6.50;99.90;;;;;;4974339;28;20027;-88
2023/04/02 02:03:32;;;;;;;5.85;3.22;;;6.50;99.90;;;;;;4974798;28;20106;-88
2023/04/02 02:06:00;;;;;;;9.43;3.95;;;6.50;99.90;;;;;;4974451;28;20124;-88
2023/04/02 02:08:45;;;;;;;5.50;3.33;;;6.50;99.90;;;;;;4975449;28;20071;-89
2023/04/02 02:11:15;;;;;;;5.45;3.45;;;6.50;99.90;;;;;;4973839;28;20050;-88
2023/04/02 02:13:59;;;;;;;5.40;3.42;;;6.50;99.90;;;;;;4973958;28;20031;-88
2023/04/02 02:16:28;;;;;;;6.55;2.97;;;6.50;99.90;;;;;;4975331;28;20034;-89
2023/04/02 02:19:03;;;;;;;5.70;2.95;;;6.50;99.90;;;;;;4974014;28;20035;-89
2023/04/02 02:21:43;;;;;;;3.10;2.53;;;6.50;99.90;;;;;;4974035;28;20174;-88
2023/04/02 02:24:25;;;;;;;3.22;2.92;;;6.50;99.90;;;;;;4973742;28;20071;-88
2023/04/02 02:27:13;;;;;;;5.97;2.90;;;6.50;99.90;;;;;;4974058;28;20026;-88
2023/04/02 02:29:40;;;;;;;3.33;2.88;;;6.50;99.90;;;;;;4936195;28;20038;-89
2023/04/02 02:32:09;;;;;;;2.85;2.65;;;6.50;99.90;;;;;;4973775;28;20492;-88
2023/04/02 02:34:47;;;;;;;4.85;2.78;;;6.50;99.90;;;;;;4973724;28;20034;-88
2023/04/02 02:37:20;;;;;;;3.58;2.15;;;6.40;99.90;;;;;;4973966;28;20058;-88
2023/04/02 02:40:09;;;;;;;4.50;2.20;;;6.40;99.90;;;;;;4974758;28;20113;-88
2023/04/02 02:42:41;;;;;;;4.75;2.60;;;6.40;99.90;;;;;;4971735;28;20030;-88
2023/04/02 02:45:18;;;;;;;5.38;2.65;;;6.40;99.90;;;;;;4973982;28;20031;-88
2023/04/02 02:47:45;;;;;;;4.07;2.90;;;6.40;99.90;;;;;;4974971;28;20519;-88
2023/04/02 02:50:20;;;;;;;4.22;2.65;;;6.40;99.90;;;;;;4973690;28;20031;-88
2023/04/02 02:52:52;;;;;;;2.42;2.13;;;6.40;99.90;;;;;;4975729;28;20027;-88
2023/04/02 02:55:23;;;;;;;3.95;2.38;;;6.40;99.90;;;;;;4977027;28;20027;-88
2023/04/02 02:57:54;;;;;;;;;;;6.30;99.90;;;;;;4977817;28;20027;-88
2023/04/02 03:00:23;;;;;;;3.55;2.53;;;6.30;99.90;;;;;;4958291;28;19914;-87
2023/04/02 03:02:51;;;;;;;2.65;2.10;;;6.40;99.90;;;;;;4975559;28;20074;-89
2023/04/02 03:05:23;;;;;;;4.10;2.70;;;6.30;99.90;;;;;;4974189;28;20035;-88
2023/04/02 03:07:52;;;;;;;3.40;2.78;;;6.30;99.90;;;;;;4973835;28;20089;-86
2023/04/02 03:10:17;;;;;;;5.70;2.47;;;6.30;99.90;;;;;;4973585;28;20110;-86
2023/04/02 03:12:53;;;;;;;5.68;2.63;;;6.30;99.90;;;;;;4957730;28;20023;-89
2023/04/02 03:15:41;;;;;;;3.88;2.60;;;6.30;99.90;;;;;;4974472;28;20069;-88
2023/04/02 03:18:31;;;;;;;4.10;2.97;;;6.30;99.90;;;;;;4973342;28;20086;-86
2023/04/02 03:21:13;;;;;;;4.07;2.70;;;6.30;99.90;;;;;;4973391;28;20035;-86
2023/04/02 03:23:44;;;;;;;4.88;2.95;;;6.30;99.90;;;;;;4973193;28;20031;-88
2023/04/02 03:26:30;;;;;;;5.32;3.08;;;6.30;99.90;;;;;;4974157;28;20105;-89
2023/04/02 03:29:05;;;;;;;4.20;3.13;;;6.30;99.90;;;;;;4976996;28;20030;-88
2023/04/02 03:31:56;;;;;;;6.28;3.60;;;6.30;99.90;;;;;;4977067;28;20473;-88
2023/04/02 03:34:31;;;;;;;5.57;3.47;;;6.30;99.90;;;;;;4966506;28;20034;-88
2023/04/02 03:37:19;;;;;;;5.72;3.00;;;6.30;99.90;;;;;;4976856;28;20031;-85
2023/04/02 03:40:07;;;;;;;6.45;3.42;;;6.30;99.90;;;;;;4976642;28;20481;-87
2023/04/02 03:42:58;;;;;;;5.53;3.53;;;6.30;99.90;;;;;;4976652;28;20030;-88
2023/04/02 03:45:32;;;;;;;5.15;3.30;;;6.30;99.90;;;;;;4977789;28;20030;-88
2023/04/02 03:48:37;;;;;;;4.95;3.10;;;6.30;99.90;;;;;;4976604;28;20023;-87
2023/04/02 03:51:12;;;;;;;4.55;2.20;;;6.30;99.90;;;;;;4901497;29;20111;-87
2023/04/02 03:53:38;;;;;;;4.45;2.50;;;6.30;99.90;;;;;;4902028;29;20047;-87
2023/04/02 03:56:06;;;;;;;3.28;1.90;;;6.30;99.90;;;;;;4917984;29;20028;-86
2023/04/02 03:58:41;;;;;;;2.92;2.08;;;6.30;99.90;;;;;;4901810;29;20051;-88
2023/04/02 04:01:27;;;;;;;2.47;1.75;;;6.30;99.90;;;;;;4902000;29;20046;-87
2023/04/02 04:03:56;;;;;;;4.50;2.15;;;6.30;99.90;;;;;;4901906;29;20028;-88
2023/04/02 04:06:31;;;;;;;2.40;1.70;;;6.30;99.90;;;;;;4901578;29;20087;-88
2023/04/02 04:09:10;;;;;;;3.50;1.85;;;6.30;99.90;;;;;;4901941;29;20119;-88
2023/04/02 04:11:42;;;;;;;6.47;2.15;;;6.20;99.90;;;;;;4916321;29;20058;-87
2023/04/02 04:14:26;;;;;;;2.30;1.67;;;6.20;99.90;;;;;;4920665;29;20024;-87
2023/04/02 04:16:55;;;;;;;6.32;2.03;;;6.20;99.90;;;;;;4920492;29;20031;-87
2023/04/02 04:19:32;;;;;;;4.10;1.55;;;6.20;99.90;;;;;;4920585;29;20055;-87
2023/04/02 04:22:09;;;;;;;1.88;1.55;;;6.20;99.90;;;;;;4920535;29;20027;-87
2023/04/02 04:24:38;;;;;;;4.45;1.80;;;6.20;99.90;;;;;;4942205;28;20042;-87
2023/04/02 04:27:32;;;;;;;4.70;1.80;;;6.20;99.90;;;;;;4994826;28;20027;-87
2023/04/02 04:30:13;;;;;;;3.15;2.50;;;6.20;99.90;;;;;;4994755;28;20069;-87
2023/04/02 04:32:49;;;;;;;6.68;2.90;;;6.20;99.90;;;;;;4994975;28;20026;-88
2023/04/02 04:35:31;;;;;;;4.13;2.28;;;6.10;99.90;;;;;;4994778;28;20070;-88
2023/04/02 04:38:15;;;;;;;6.38;2.83;;;6.10;99.90;;;;;;4994364;28;20070;-88
2023/04/02 04:40:51;;;;;;;4.63;2.28;;;6.00;99.90;;;;;;4994608;28;20023;-87
2023/04/02 04:43:30;;;;;;;6.45;3.20;;;6.00;99.90;;;;;;4994758;28;20501;-87
2023/04/02 04:46:03;;;;;;;4.85;2.08;;;6.00;99.90;;;;;;4994617;28;20384;-87
2023/04/02 04:48:37;;;;;;;5.97;2.67;;;6.00;99.90;;;;;;4994922;28;20042;-87
2023/04/02 04:51:25;;;;;;;8.23;2.92;;;6.00;99.90;;;;;;4995518;28;20384;-85
2023/04/02 04:53:54;;;;;;;4.57;2.58;;;6.00;99.90;;;;;;4994402;28;20498;-87
2023/04/02 04:56:28;;;;;;;6.05;2.58;;;6.00;99.90;;;;;;4994590;28;20494;-88
2023/04/02 04:59:21;;;;;;;6.53;2.22;;;6.00;99.90;;;;;;4994249;28;20113;-87
2023/04/02 05:02:02;;;;;;;9.32;2.17;;;6.00;99.90;;;;;;4994653;28;20093;-87
2023/04/02 05:04:35;;;;;;;3.95;2.05;;;6.00;99.90;;;;;;4994203;28;20037;-88
2023/04/02 05:07:01;;;;;;;10.13;2.00;;;6.00;99.90;;;;;;4994424;28;20157;-88
2023/04/02 05:09:35;;;;;;;13.93;2.28;;;5.90;99.90;;;;;;4994301;28;20054;-87
2023/04/02 05:12:24;;;;;;;4.97;2.20;;;5.90;99.90;;;;;;4975750;28;20126;-87
2023/04/02 05:14:58;;;;;;;10.40;1.80;;;5.90;99.90;;;;;;4958663;28;20027;-87
2023/04/02 05:17:35;;;;;;;3.63;1.90;;;5.90;99.90;;;;;;4974764;28;20022;-87
2023/04/02 05:20:36;;;;;;;7.45;2.28;;;5.80;99.90;;;;;;4974509;28;20031;-87
2023/04/02 05:23:16;;;;;;;9.63;3.15;;;5.80;99.90;;;;;;4974579;28;20031;-87
2023/04/02 05:26:14;;;;;;;12.13;3.88;;;5.80;99.90;;;;;;4974638;28;20027;-86
2023/04/02 05:28:45;;;;;;;14.57;3.95;;;5.70;99.90;;;;;;4958337;28;20098;-86
2023/04/02 05:31:41;;;;;;;17.95;4.65;;;5.70;99.90;;;;;;4974438;28;20121;-86
2023/04/02 05:34:09;;;;;;;23.17;4.90;;;5.70;99.90;;;;;;4968128;28;20054;-86
2023/04/02 05:36:35;;;;;;;20.55;5.05;;;5.70;99.90;;;;;;4974277;28;20078;-86
2023/04/02 05:39:01;;;;;;;25.00;5.35;;;5.70;99.90;;;;;;4974245;28;20046;-87
2023/04/02 05:41:44;;;;;;;17.70;4.45;;;5.60;99.90;;;;;;4958284;28;20118;-86
2023/04/02 05:44:19;;;;;;;19.27;4.65;;;5.60;99.90;;;;;;4974247;28;20030;-87
2023/04/02 05:46:53;;;;;;;25.10;4.72;;;5.60;99.90;;;;;;4974190;28;20393;-87
2023/04/02 05:49:52;;;;;;;18.77;4.00;;;5.60;99.90;;;;;;4973580;28;20444;-86
2023/04/02 05:52:24;;;;;;;20.23;3.38;;;5.50;99.90;;;;;;4957991;28;20121;-87
2023/04/02 05:55:01;;;;;;;22.80;4.10;;;5.50;99.90;;;;;;4974205;28;20035;-86
2023/04/02 05:57:37;;;;;;;17.40;3.75;;;5.50;99.90;;;;;;4974135;28;20484;-86
2023/04/02 06:00:11;;;;;;;21.25;3.67;;;5.50;99.90;;;;;;4974060;28;20105;-86
2023/04/02 06:02:52;;;;;;;22.73;3.88;;;5.50;99.90;;;;;;4973826;28;20031;-86
2023/04/02 06:05:22;;;;;;;17.70;3.15;;;5.50;99.90;;;;;;4974053;28;20035;-86
2023/04/02 06:08:10;;;;;;;11.55;3.10;;;5.50;99.90;;;;;;4975202;28;20035;-86
2023/04/02 06:11:00;;;;;;;22.67;3.42;;;5.50;99.90;;;;;;4976278;28;20062;-85
2023/04/02 06:13:26;;;;;;;17.20;3.15;;;5.50;99.90;;;;;;4974911;28;20211;-86
2023/04/02 06:15:52;;;;;;;17.70;2.97;;;5.50;99.90;;;;;;4975003;28;20472;-86
2023/04/02 06:18:27;;;;;;;13.55;3.20;;;5.50;99.90;;;;;;4959394;28;20046;-86
2023/04/02 06:20:53;;;;;;;19.88;3.15;;;5.50;99.90;;;;;;4976902;28;20031;-86
2023/04/02 06:23:53;;;;;;;13.05;3.50;;;5.60;99.90;;;;;;4976626;28;20041;-85
2023/04/02 06:26:39;;;;;;;15.07;3.60;;;5.60;99.90;;;;;;4974236;28;20031;-86
2023/04/02 06:29:18;;;;;;;19.80;3.40;;;5.60;99.90;;;;;;4973425;28;20492;-86
2023/04/02 06:31:49;;;;;;;18.67;4.00;;;5.60;99.90;;;;;;4974142;28;20062;-85
2023/04/02 06:34:26;;;;;;;21.42;3.60;;;5.60;99.90;;;;;;4973798;28;20041;-86
2023/04/02 06:36:59;;;;;;;22.48;3.47;;;5.60;99.90;;;;;;4974519;28;20027;-86
2023/04/02 06:39:26;;;;;;;16.80;3.85;;;5.50;99.90;;;;;;4972969;28;20090;-88
2023/04/02 06:42:15;;;;;;;15.45;3.13;;;5.50;99.90;;;;;;4973354;28;20043;-86
2023/04/02 06:44:40;;;;;;;17.08;3.60;;;5.50;99.90;;;;;;4972868;28;20031;-85
2023/04/02 06:47:25;;;;;;;17.02;2.95;;;5.50;99.90;;;;;;4972897;28;20022;-86
2023/04/02 06:50:02;;;;;;;22.63;3.58;;;5.50;99.90;;;;;;4973216;28;20479;-86
2023/04/02 06:52:44;;;;;;;25.08;2.90;;;5.50;99.90;;;;;;4973230;28;20405;-85
2023/04/02 06:55:35;;;;;;;21.83;4.28;;;5.50;99.90;;;;;;4973163;28;20126;-86
2023/04/02 06:58:00;;;;;;;21.35;3.03;;;5.50;99.90;;;;;;4961905;28;20125;-86
2023/04/02 07:00:35;;;;;;;21.52;4.50;;;5.60;99.90;;;;;;4975420;28;20069;-86
2023/04/02 07:03:06;;;;;;;19.48;3.00;;;5.50;99.90;;;;;;4979540;28;20101;-87
2023/04/02 07:05:31;;;;;;;12.45;2.95;;;5.60;99.90;;;;;;4979435;28;20031;-86
2023/04/02 07:07:57;;;;;;;16.90;3.80;;;5.60;99.90;;;;;;4963601;28;20494;-87
2023/04/02 07:10:23;;;;;;;22.75;3.40;;;5.70;99.90;;;;;;4979369;28;20038;-86
2023/04/02 07:12:49;;;;;;;18.83;2.92;;;5.70;99.90;;;;;;4979804;28;20065;-87
2023/04/02 07:15:18;;;;;;;15.02;2.72;;;5.80;99.90;;;;;;4963507;28;20018;-86
2023/04/02 07:17:47;;;;;;;20.00;3.33;;;5.90;99.90;;;;;;4979593;28;20038;-86
2023/04/02 07:20:27;;;;;;;24.50;3.05;;;6.00;99.90;;;;;;4979725;28;20134;-87
2023/04/02 07:22:53;;;;;;;16.48;2.97;;;6.10;99.90;;;;;;4963968;28;20453;-86
2023/04/02 07:25:19;;;;;;;15.98;3.13;;;6.10;99.90;;;;;;4963474;28;20105;-87
2023/04/02 07:27:45;;;;;;;16.88;3.00;;;6.10;99.90;;;;;;4979660;28;20053;-87
2023/04/02 07:30:11;;;;;;;19.30;3.40;;;6.20;99.90;;;;;;4963068;28;20085;-86
2023/04/02 07:32:37;;;;;;;21.52;3.72;;;6.20;99.90;;;;;;4979853;28;20468;-87
2023/04/02 07:35:04;;;;;;;17.80;2.75;;;6.20;99.90;;;;;;4963381;28;20109;-86
2023/04/02 07:37:30;;;;;;;20.35;2.85;;;6.30;99.90;;;;;;4979589;28;20026;-86
2023/04/02 07:39:56;;;;;;;19.50;3.05;;;6.40;99.90;;;;;;4980903;28;20030;-86
2023/04/02 07:42:22;;;;;;;18.25;2.90;;;6.40;99.90;;;;;;4980165;28;20138;-86
2023/04/02 07:44:47;;;;;;;26.52;5.05;;;6.50;99.90;;;;;;4980887;28;20535;-86
2023/04/02 07:47:13;;;;;;;18.05;2.85;;;6.50;99.90;;;;;;4964708;28;20027;-86
2023/04/02 07:49:39;;;;;;;15.15;3.35;;;6.60;99.90;;;;;;4963752;28;20094;-86
2023/04/02 07:52:05;;;;;;;9.55;2.47;;;6.60;99.90;;;;;;4981327;28;20491;-86
2023/04/02 07:54:31;;;;;;;13.73;2.63;;;6.80;99.90;;;;;;4964185;28;20023;-84
2023/04/02 07:56:57;;;;;;;10.52;2.90;;;6.80;99.90;;;;;;4963893;28;20030;-87
2023/04/02 07:59:22;;;;;;;11.38;2.92;;;6.80;99.90;;;;;;4962551;28;20034;-87
2023/04/02 08:01:48;;;;;;;22.38;3.20;;;6.90;99.90;;;;;;4980440;28;20377;-87
2023/04/02 08:04:21;;;;;;;17.77;3.83;;;6.90;99.90;;;;;;4979057;28;20682;-86
2023/04/02 08:06:49;;;;;;;28.35;3.47;;;6.90;99.90;;;;;;4978992;28;20027;-86
2023/04/02 08:09:15;;;;;;;22.17;3.67;;;6.90;99.90;;;;;;4978849;28;20126;-87
2023/04/02 08:11:45;;;;;;;15.45;3.03;;;7.00;99.90;;;;;;4977426;28;20046;-86
2023/04/02 08:14:11;;;;;;;16.45;2.67;;;7.00;99.90;;;;;;4976079;28;20027;-86
2023/04/02 08:17:03;;;;;;;14.23;2.30;;;7.00;99.90;;;;;;4975995;28;20033;-86
2023/04/02 08:19:28;;;;;;;15.02;2.58;;;7.10;99.90;;;;;;4972259;28;20047;-86
2023/04/02 08:21:55;;;;;;;10.32;2.72;;;7.10;99.90;;;;;;4960007;28;20030;-86
2023/04/02 08:24:21;;;;;;;18.83;2.95;;;7.10;99.90;;;;;;4975596;28;20031;-86
2023/04/02 08:26:48;;;;;;;11.32;2.22;;;7.20;99.90;;;;;;4959372;28;20074;-87
2023/04/02 08:29:14;;;;;;;15.15;2.78;;;7.20;99.90;;;;;;4975867;28;20098;-87
2023/04/02 08:31:40;;;;;;;13.00;2.72;;;7.20;99.90;;;;;;4975721;28;20125;-87
2023/04/02 08:34:06;;;;;;;21.25;3.03;;;7.20;99.90;;;;;;4975864;28;20027;-85
2023/04/02 08:36:35;;;;;;;13.60;2.97;;;7.20;99.90;;;;;;4975791;28;20027;-87
2023/04/02 08:39:01;;;;;;;16.70;2.72;;;7.10;99.90;;;;;;4975319;28;20058;-86
2023/04/02 08:41:27;;;;;;;13.75;2.60;;;7.10;99.90;;;;;;4975250;28;20465;-86
2023/04/02 08:44:17;;;;;;;17.70;2.83;;;7.10;99.90;;;;;;4975065;28;20083;-87
2023/04/02 08:46:50;;;;;;;12.95;2.33;;;7.00;99.90;;;;;;4959435;28;20089;-86
2023/04/02 08:49:30;;;;;;;12.75;2.80;;;7.10;99.90;;;;;;4975599;28;20030;-87
2023/04/02 08:51:56;;;;;;;12.90;2.57;;;7.10;99.90;;;;;;4975769;28;20132;-87
2023/04/02 08:54:28;;;;;;;13.38;3.20;;;7.10;99.90;;;;;;4959452;28;20436;-87
2023/04/02 08:57:06;;;;;;;19.15;3.05;;;7.10;99.90;;;;;;4975365;28;20030;-86
2023/04/02 08:59:34;;;;;;;15.80;3.53;;;7.20;99.90;;;;;;4975561;28;20038;-87
2023/04/02 09:02:09;;;;;;;10.38;2.33;;;7.20;99.90;;;;;;4975311;28;20134;-87
2023/04/02 09:04:35;;;;;;;16.08;2.92;;;7.30;99.90;;;;;;4975172;28;20038;-87
2023/04/02 09:07:02;;;;;;;10.73;3.35;;;7.50;99.90;;;;;;4976453;28;20097;-87
2023/04/02 09:09:37;;;;;;;15.75;3.08;;;7.50;99.90;;;;;;4974835;28;20027;-87
2023/04/02 09:12:03;;;;;;;11.85;2.55;;;7.60;99.90;;;;;;4974622;28;20127;-87
2023/04/02 09:14:37;;;;;;;20.30;3.20;;;7.70;99.90;;;;;;4974839;28;20023;-87
2023/04/02 09:17:07;;;;;;;18.92;3.63;;;7.90;99.90;;;;;;4974858;28;20031;-87
2023/04/02 09:19:43;;;;;;;15.75;3.35;;;8.00;99.90;;;;;;4974479;28;20038;-87
2023/04/02 09:22:30;;;;;;;10.23;2.75;;;8.10;99.90;;;;;;4974719;28;20038;-87
2023/04/02 09:25:03;;;;;;;12.80;2.90;;;8.10;99.90;;;;;;4973293;28;20058;-87
2023/04/02 09:27:31;;;;;;;13.20;2.70;;;8.10;99.90;;;;;;4974761;28;20552;-88
2023/04/02 09:30:33;;;;;;;15.85;3.50;;;8.10;99.90;;;;;;4974615;28;20027;-87
2023/04/02 09:33:06;;;;;;;9.05;3.22;;;8.10;99.90;;;;;;4950397;28;20039;-87
2023/04/02 09:35:37;;;;;;;18.80;4.40;;;8.10;99.90;;;;;;4974681;28;20089;-87
2023/04/02 09:38:12;;;;;;;16.40;3.60;;;8.10;99.90;;;;;;4974579;28;20492;-87
2023/04/02 09:40:57;;;;;;;12.70;2.90;;;8.10;99.90;;;;;;4974057;28;20018;-87
2023/04/02 09:43:34;;;;;;;14.48;2.90;;;8.20;99.90;;;;;;4974355;28;20122;-87
2023/04/02 09:46:03;;;;;;;15.82;2.97;;;8.20;99.90;;;;;;4974234;28;20038;-87
2023/04/02 09:48:31;;;;;;;7.50;3.20;;;8.30;99.90;;;;;;4974445;28;20078;-87
2023/04/02 09:51:17;;;;;;;17.52;2.95;;;8.40;99.90;;;;;;4974219;28;20030;-88
2023/04/02 09:53:45;;;;;;;18.30;3.03;;;8.60;99.90;;;;;;4973429;28;20030;-85
2023/04/02 09:56:18;;;;;;;8.25;2.13;;;8.70;99.90;;;;;;4973395;28;20070;-86
2023/04/02 09:58:45;;;;;;;15.77;2.13;;;8.80;99.90;;;;;;4974410;28;20377;-86
2023/04/02 10:01:28;;;;;;;14.88;2.58;;;9.00;99.90;;;;;;4974063;28;20023;-87
2023/04/02 10:03:55;;;;;;;15.10;2.65;;;9.10;99.90;;;;;;4973886;28;20122;-88
2023/04/02 10:06:21;;;;;;;20.52;2.35;;;9.20;99.90;;;;;;4973778;28;20050;-88
2023/04/02 10:08:46;;;;;;;12.50;2.17;;;9.50;99.90;;;;;;4974175;28;20042;-87
2023/04/02 10:11:28;;;;;;;9.43;2.33;;;9.70;99.90;;;;;;4975321;28;20046;-87
2023/04/02 10:14:02;;;;;;;16.75;2.55;;;9.90;99.90;;;;;;4975120;28;20038;-87
2023/04/02 10:16:33;;;;;;;13.23;2.75;;;10.00;99.90;;;;;;4974511;28;20500;-88
2023/04/02 10:19:05;;;;;;;18.33;3.42;;;10.10;99.90;;;;;;4973693;28;20046;-88
2023/04/02 10:21:34;;;;;;;15.57;2.85;;;10.30;99.90;;;;;;4957883;28;20484;-88
2023/04/02 10:24:01;;;;;;;6.65;1.83;;;10.50;99.90;;;;;;4974734;28;20121;-88
2023/04/02 10:26:48;;;;;;;12.32;2.22;;;10.70;99.90;;;;;;4957835;28;20027;-88
2023/04/02 10:29:38;;;;;;;18.42;2.13;;;10.80;99.90;;;;;;4973771;28;20023;-88
2023/04/02 10:32:11;;;;;;;12.93;3.40;;;11.00;99.90;;;;;;4957585;28;20058;-88
2023/04/02 10:34:54;;;;;;;16.77;2.20;;;11.30;99.90;;;;;;4973332;28;20023;-89
2023/04/02 10:37:40;;;;;;;11.15;1.67;;;11.50;99.60;;;;;;4955745;28;20037;-89
2023/04/02 10:40:20;;;;;;;16.38;2.17;;;11.70;98.40;;;;;;4973709;28;20125;-86
2023/04/02 10:42:55;;;;;;;16.10;2.97;;;11.80;97.10;;;;;;4973853;28;20027;-89
2023/04/02 10:45:39;;;;;;;10.52;2.40;;;12.10;97.10;;;;;;4973422;28;20365;-89
2023/04/02 10:48:45;;;;;;;21.50;4.43;;;12.30;96.60;;;;;;4973488;28;20026;-88
2023/04/02 10:51:27;;;;;;;19.25;3.45;;;12.40;94.90;;;;;;4973948;28;20026;-88
2023/04/02 10:53:56;;;;;;;13.60;2.40;;;12.70;94.30;;;;;;4973415;28;20023;-88
2023/04/02 10:56:23;;;;;;;13.77;2.40;;;12.80;93.70;;;;;;4973824;28;20035;-88
2023/04/02 10:59:03;;;;;;;16.15;2.50;;;12.90;92.70;;;;;;4973553;28;20496;-89
2023/04/02 11:01:31;;;;;;;12.60;2.33;;;13.00;91.50;;;;;;4973609;28;20031;-88
2023/04/02 11:04:07;;;;;;;14.05;1.70;;;13.00;91.40;;;;;;4973340;28;20115;-88
2023/04/02 11:06:43;;;;;;;12.88;1.98;;;13.20;90.90;;;;;;4973238;28;20023;-88
2023/04/02 11:09:16;;;;;;;8.98;2.42;;;13.40;90.10;;;;;;4973187;28;20113;-88
2023/04/02 11:11:45;;;;;;;12.98;3.10;;;13.70;89.40;;;;;;4973518;28;20067;-88
2023/04/02 11:14:24;;;;;;;8.18;2.10;;;13.80;87.80;;;;;;4973126;28;20094;-88
2023/04/02 11:16:52;;;;;;;14.98;2.42;;;13.70;86.30;;;;;;4973413;28;20432;-89
2023/04/02 11:19:18;;;;;;;15.15;2.50;;;13.80;86.00;;;;;;4973057;28;20031;-88
2023/04/02 11:21:47;;;;;;;9.95;2.28;;;13.70;85.00;;;;;;4973045;28;20041;-88
2023/04/02 11:24:33;;;;;;;16.15;3.45;;;13.50;84.20;;;;;;4973147;28;20065;-88
2023/04/02 11:27:13;;;;;;;8.88;1.88;;;13.30;83.80;;;;;;4957381;28;20059;-88
2023/04/02 11:29:47;;;;;;;13.35;2.33;;;13.20;84.10;;;;;;4956883;28;20142;-87
2023/04/02 11:32:30;;;;;;;9.50;2.45;;;13.10;84.40;;;;;;4956873;28;20121;-87
2023/04/02 11:35:00;;;;;;;15.60;1.83;;;13.00;83.80;;;;;;4973034;28;20023;-87
2023/04/02 11:37:38;;;;;;;12.57;2.13;;;13.00;84.00;;;;;;4972979;28;20027;-87
2023/04/02 11:40:10;;;;;;;12.48;2.22;;;13.00;83.60;;;;;;4974212;28;20393;-87
2023/04/02 11:42:39;;;;;;;13.32;2.40;;;13.00;83.40;;;;;;4972842;28;20081;-86
2023/04/02 11:45:20;;;;;;;13.52;2.75;;;13.30;83.10;;;;;;4972646;28;20023;-89
2023/04/02 11:48:02;;;;;;;16.65;2.38;;;13.60;82.00;;;;;;4974467;28;20027;-89
2023/04/02 11:50:38;;;;;;;8.88;1.80;;;13.90;81.40;;;;;;4976340;28;20476;-88
2023/04/02 11:53:13;;;;;;;16.70;2.35;;;14.40;80.40;;;;;;4976670;28;20038;-86
2023/04/02 11:55:44;;;;;;;8.07;1.67;;;14.80;78.60;;;;;;4960633;28;20511;-88
2023/04/02 11:58:10;;;;;;;;;;;15.10;77.40;;;;;;4976998;28;20183;-88
2023/04/02 12:00:56;;;;;;;14.55;2.25;;;15.20;77.00;;;;;;4977622;28;19950;-88
2023/04/02 12:03:37;;;;;;;10.32;2.38;;;15.10;75.70;;;;;;4976412;28;20027;-87
2023/04/02 12:06:24;;;;;;;14.38;2.38;;;15.00;75.60;;;;;;4959882;28;20019;-86
2023/04/02 12:09:17;;;;;;;10.52;2.45;;;14.90;75.60;;;;;;4976578;28;20027;-88
2023/04/02 12:11:44;;;;;;;11.48;2.03;;;14.90;75.80;;;;;;4975906;28;20117;-88
2023/04/02 12:14:31;;;;;;;7.05;1.60;;;15.00;75.40;;;;;;4976224;28;20500;-88
2023/04/02 12:16:58;;;;;;;7.85;1.80;;;15.10;74.50;;;;;;4959847;28;20086;-88
2023/04/02 12:19:26;;;;;;;10.35;2.03;;;15.10;74.40;;;;;;4976028;28;20035;-88
2023/04/02 12:21:52;;;;;;;11.93;2.22;;;14.90;74.00;;;;;;4975972;28;20380;-87
2023/04/02 12:24:23;;;;;;;14.98;2.80;;;14.80;73.80;;;;;;4976351;28;20023;-87
2023/04/02 12:27:07;;;;;;;17.50;2.17;;;14.70;73.80;;;;;;4976032;28;20019;-87
2023/04/02 12:29:33;;;;;;;13.38;2.20;;;14.70;73.60;;;;;;4977197;28;20031;-88
2023/04/02 12:31:59;;;;;;;14.45;2.30;;;14.50;73.50;;;;;;4976569;28;20069;-88
2023/04/02 12:34:27;;;;;;;9.88;2.38;;;14.50;74.10;;;;;;4961166;28;20035;-88
2023/04/02 12:37:04;;;;;;;10.07;2.03;;;14.40;74.40;;;;;;4977017;28;20023;-88
2023/04/02 12:39:32;;;;;;;14.85;2.55;;;14.40;74.60;;;;;;4979394;28;20038;-88
2023/04/02 12:41:57;;;;;;;15.05;2.67;;;14.30;74.80;;;;;;4977486;28;20034;-88
2023/04/02 12:44:26;;;;;;;10.65;2.10;;;14.40;75.10;;;;;;4961607;28;20031;-88
2023/04/02 12:46:53;;;;;;;14.77;2.35;;;14.30;75.00;;;;;;4976190;28;20089;-88
2023/04/02 12:49:37;;;;;;;12.40;2.00;;;14.50;74.80;;;;;;4975314;28;20023;-87
2023/04/02 12:52:10;;;;;;;11.05;2.40;;;14.70;74.20;;;;;;4976076;28;20034;-89
2023/04/02 12:54:47;;;;;;;13.77;2.38;;;14.70;73.60;;;;;;4976841;28;20026;-89
2023/04/02 12:57:26;;;;;;;10.13;2.38;;;14.50;72.70;;;;;;4975769;28;20035;-87
2023/04/02 12:59:53;;;;;;;9.23;2.00;;;14.60;72.30;;;;;;4975616;28;20042;-88
2023/04/02 13:02:24;;;;;;;11.00;2.20;;;14.80;72.70;;;;;;4975845;28;20027;-88
2023/04/02 13:04:56;;;;;;;11.93;2.35;;;15.20;72.60;;;;;;4975390;28;20564;-88
2023/04/02 13:07:24;;;;;;;10.88;2.00;;;15.70;71.50;;;;;;4975701;28;20031;-87
2023/04/02 13:10:01;;;;;;;6.20;2.00;;;16.10;70.90;;;;;;4977646;28;20022;-89
2023/04/02 13:12:39;;;;;;;13.77;2.55;;;16.50;70.00;;;;;;5000992;28;20045;-89
2023/04/02 13:15:24;;;;;;;11.75;2.22;;;16.80;68.70;;;;;;5017665;28;20101;-87
2023/04/02 13:18:20;;;;;;;6.95;1.90;;;16.90;67.60;;;;;;4999867;28;20123;-89
2023/04/02 13:21:04;;;;;;;13.98;2.05;;;17.00;65.60;;;;;;4998346;28;20030;-89
2023/04/02 13:23:34;;;;;;;11.20;2.30;;;16.70;64.70;;;;;;4997706;28;20116;-89
2023/04/02 13:26:08;;;;;;;13.40;2.20;;;16.70;65.00;;;;;;4997597;28;20513;-88
2023/04/02 13:28:34;;;;;;;14.43;2.10;;;16.80;65.10;;;;;;4997546;28;20029;-89